Time;durP1;ratioP1;P1;durP2;ratioP2;P2;SDS_P1;SDS_P2;PMS_P1;PMS_P2;Temp;Humidity;BMP_temperature;BMP_pressure;BME280_temperature;BME280_humidity;BME280_pressure;Samples;Min_cycle;Max_cycle;Signal;HPM_P1;HPM_P2
2024/01/28 00:00:14;;;;;;;;;;;;;;;;;;5053874;28;20380;-45
2024/01/28 00:02:39;;;;;;;;;;;;;;;;;;5053675;28;19925;-42
2024/01/28 00:05:05;;;;;;;;;;;;;;;;;;5054133;28;19929;-41
2024/01/28 00:07:30;;;;;;;;;;;;;;;;;;5054115;28;19925;-40
2024/01/28 00:09:56;;;;;;;;;;;;;;;;;;5053974;28;20057;-41
2024/01/28 00:12:22;;;;;;;;;;;;;;;;;;5052664;28;19960;-41
2024/01/28 00:14:47;;;;;;;;;;;;;;;;;;5053830;28;19929;-40
2024/01/28 00:17:13;;;;;;;;;;;;;;;;;;5053844;28;19968;-43
2024/01/28 00:19:38;;;;;;;;;;;;;;;;;;5053898;28;19983;-40
2024/01/28 00:22:04;;;;;;;;;;;;;;;;;;5053817;28;19999;-41
2024/01/28 00:24:29;;;;;;;;;;;;;;;;;;5053405;28;20300;-41
2024/01/28 00:26:55;;;;;;;;;;;;;;;;;;5053324;28;20012;-41
2024/01/28 00:29:28;;;;;;;;;;;;;;;;;;5053498;28;19925;-42
2024/01/28 00:31:53;;;;;;;;;;;;;;;;;;5053839;28;19983;-40
2024/01/28 00:34:19;;;;;;;;;;;;;;;;;;5053696;28;20074;-40
2024/01/28 00:36:44;;;;;;;;;;;;;;;;;;5053531;28;19935;-41
2024/01/28 00:39:13;;;;;;;;;;;;;;;;;;5059287;28;20019;-43
2024/01/28 00:41:38;;;;;;;;;;;;;;;;;;5053496;28;19925;-41
2024/01/28 00:44:04;;;;;;;;;;;;;;;;;;5053453;28;19999;-43
2024/01/28 00:46:31;;;;;;;;;;;;;;;;;;5052902;28;19976;-44
2024/01/28 00:48:57;;;;;;;;;;;;;;;;;;5053191;28;19932;-41
2024/01/28 00:51:22;;;;;;;;;;;;;;;;;;5053076;28;19925;-40
2024/01/28 00:53:48;;;;;;;;;;;;;;;;;;5053191;28;20000;-41
2024/01/28 00:56:16;;;;;;;;;;;;;;;;;;5053206;28;19968;-41
2024/01/28 00:58:41;;;;;;;;;;;;;;;;;;5053264;28;20299;-43
2024/01/28 01:01:07;;;;;;;;;;;;;;;;;;5052928;28;20411;-41
2024/01/28 01:03:32;;;;;;;;;;;;;;;;;;5053268;28;20276;-42
2024/01/28 01:05:58;;;;;;;;;;;;;;;;;;5052959;28;20011;-42
2024/01/28 01:08:24;;;;;;;;;;;;;;;;;;5053041;28;19964;-42
2024/01/28 01:10:50;;;;;;;;;;;;;;;;;;5053076;28;20011;-42
2024/01/28 01:13:15;;;;;;;;;;;;;;;;;;5052985;28;19952;-42
2024/01/28 01:15:41;;;;;;;;;;;;;;;;;;5052758;28;20253;-42
2024/01/28 01:18:06;;;;;;;;;;;;;;;;;;5053046;28;19924;-43
2024/01/28 01:20:33;;;;;;;;;;;;;;;;;;5052934;28;19983;-41
2024/01/28 01:22:58;;;;;;;;;;;;;;;;;;5052662;28;19967;-40
2024/01/28 01:25:23;;;;;;;;;;;;;;;;;;5052177;28;19971;-41
2024/01/28 01:27:49;;;;;;;;;;;;;;;;;;5052325;28;19964;-40
2024/01/28 01:30:15;;;;;;;;;;;;;;;;;;5052611;28;19942;-41
2024/01/28 01:32:41;;;;;;;;;;;;;;;;;;5052947;28;20071;-41
2024/01/28 01:35:07;;;;;;;;;;;;;;;;;;5052795;28;20330;-42
2024/01/28 01:37:33;;;;;;;;;;;;;;;;;;5052480;28;19929;-43
2024/01/28 01:39:58;;;;;;;;;;;;;;;;;;5054187;28;19964;-41
2024/01/28 01:42:23;;;;;;;;;;;;;;;;;;5052654;28;19932;-41
2024/01/28 01:44:49;;;;;;;;;;;;;;;;;;5052512;28;19925;-42
2024/01/28 01:47:14;;;;;;;;;;;;;;;;;;5052279;28;19976;-41
2024/01/28 01:49:40;;;;;;;;;;;;;;;;;;5052259;28;20369;-42
2024/01/28 01:52:06;;;;;;;;;;;;;;;;;;5052122;28;20372;-42
2024/01/28 01:54:31;;;;;;;;;;;;;;;;;;5052242;28;19925;-43
2024/01/28 01:56:57;;;;;;;;;;;;;;;;;;5052435;28;20012;-44
2024/01/28 01:59:22;;;;;;;;;;;;;;;;;;5052155;28;19929;-42
2024/01/28 02:01:47;;;;;;;;;;;;;;;;;;5052071;28;20020;-43
2024/01/28 02:04:13;;;;;;;;;;;;;;;;;;5052402;28;19932;-42
2024/01/28 02:06:38;;;;;;;;;;;;;;;;;;5052349;28;20037;-42
2024/01/28 02:09:06;;;;;;;;;;;;;;;;;;5052098;28;19925;-41
2024/01/28 02:11:31;;;;;;;;;;;;;;;;;;5052108;28;19932;-42
2024/01/28 02:13:57;;;;;;;;;;;;;;;;;;5052100;28;19959;-43
2024/01/28 02:16:22;;;;;;;;;;;;;;;;;;5052119;28;19975;-41
2024/01/28 02:18:48;;;;;;;;;;;;;;;;;;5052112;28;19952;-40
2024/01/28 02:21:13;;;;;;;;;;;;;;;;;;5052048;28;19931;-42
2024/01/28 02:23:39;;;;;;;;;;;;;;;;;;5052136;28;19925;-41
2024/01/28 02:26:04;;;;;;;;;;;;;;;;;;5051459;28;19951;-43
2024/01/28 02:28:30;;;;;;;;;;;;;;;;;;5052069;28;19931;-41
2024/01/28 02:30:55;;;;;;;;;;;;;;;;;;5051722;28;19929;-43
2024/01/28 02:33:21;;;;;;;;;;;;;;;;;;5052102;28;19964;-41
2024/01/28 02:35:46;;;;;;;;;;;;;;;;;;5052839;28;19924;-44
2024/01/28 02:38:12;;;;;;;;;;;;;;;;;;5055544;28;20020;-41
2024/01/28 02:40:37;;;;;;;;;;;;;;;;;;5055272;28;20023;-40
2024/01/28 02:43:05;;;;;;;;;;;;;;;;;;5063522;28;19935;-42
2024/01/28 02:45:31;;;;;;;;;;;;;;;;;;5075220;28;19931;-42
2024/01/28 02:47:56;;;;;;;;;;;;;;;;;;5074979;28;19972;-42
2024/01/28 02:50:22;;;;;;;;;;;;;;;;;;5075222;28;20352;-42
2024/01/28 02:52:47;;;;;;;;;;;;;;;;;;5074964;28;19924;-42
2024/01/28 02:55:13;;;;;;;;;;;;;;;;;;5074860;28;19925;-41
2024/01/28 02:57:38;;;;;;;;;;;;;;;;;;5074753;28;20418;-41
2024/01/28 03:00:04;;;;;;;;;;;;;;;;;;5074747;28;20408;-42
2024/01/28 03:02:29;;;;;;;;;;;;;;;;;;5075154;28;20352;-42
2024/01/28 03:04:55;;;;;;;;;;;;;;;;;;5075203;28;20023;-43
2024/01/28 03:07:20;;;;;;;;;;;;;;;;;;5075027;28;20007;-40
2024/01/28 03:09:46;;;;;;;;;;;;;;;;;;5074853;28;19979;-40
2024/01/28 03:12:11;;;;;;;;;;;;;;;;;;5074950;28;20019;-41
2024/01/28 03:14:37;;;;;;;;;;;;;;;;;;5074779;28;19929;-40
2024/01/28 03:17:02;;;;;;;;;;;;;;;;;;5074711;28;19924;-43
2024/01/28 03:19:28;;;;;;;;;;;;;;;;;;5074775;28;20279;-42
2024/01/28 03:21:53;;;;;;;;;;;;;;;;;;5074824;28;20000;-42
2024/01/28 03:24:19;;;;;;;;;;;;;;;;;;5074369;28;20023;-41
2024/01/28 03:26:44;;;;;;;;;;;;;;;;;;5074672;28;19924;-44
2024/01/28 03:29:10;;;;;;;;;;;;;;;;;;5074664;28;19968;-41
2024/01/28 03:31:35;;;;;;;;;;;;;;;;;;5074463;28;19960;-41
2024/01/28 03:34:00;;;;;;;;;;;;;;;;;;5074693;28;19925;-41
2024/01/28 03:36:26;;;;;;;;;;;;;;;;;;5074385;28;19924;-41
2024/01/28 03:38:53;;;;;;;;;;;;;;;;;;5073984;28;20318;-40
2024/01/28 03:41:19;;;;;;;;;;;;;;;;;;5074351;28;19925;-43
2024/01/28 03:43:46;;;;;;;;;;;;;;;;;;5067294;28;19952;-40
2024/01/28 03:46:11;;;;;;;;;;;;;;;;;;5073008;28;19931;-41
2024/01/28 03:48:37;;;;;;;;;;;;;;;;;;5074292;28;19925;-42
2024/01/28 03:51:02;;;;;;;;;;;;;;;;;;5074324;28;19956;-41
2024/01/28 03:53:28;;;;;;;;;;;;;;;;;;5072236;28;19975;-41
2024/01/28 03:55:53;;;;;;;;;;;;;;;;;;5074276;28;19931;-43
2024/01/28 03:58:19;;;;;;;;;;;;;;;;;;5074309;28;20011;-42
2024/01/28 04:00:44;;;;;;;;;;;;;;;;;;5074031;28;20394;-42
2024/01/28 04:03:10;;;;;;;;;;;;;;;;;;5074432;28;19924;-45
2024/01/28 04:05:36;;;;;;;;;;;;;;;;;;5074225;28;19935;-42
2024/01/28 04:08:02;;;;;;;;;;;;;;;;;;5074375;28;19924;-43
2024/01/28 04:10:27;;;;;;;;;;;;;;;;;;5074293;28;19950;-43
2024/01/28 04:12:53;;;;;;;;;;;;;;;;;;5074134;28;19960;-41
2024/01/28 04:15:18;;;;;;;;;;;;;;;;;;5073987;28;20011;-44
2024/01/28 04:17:44;;;;;;;;;;;;;;;;;;5073652;28;20370;-42
2024/01/28 04:20:09;;;;;;;;;;;;;;;;;;5073573;28;19931;-41
2024/01/28 04:22:35;;;;;;;;;;;;;;;;;;5073797;28;19932;-41
2024/01/28 04:25:00;;;;;;;;;;;;;;;;;;5073625;28;20009;-41
2024/01/28 04:27:26;;;;;;;;;;;;;;;;;;5073662;28;19982;-40
2024/01/28 04:29:51;;;;;;;;;;;;;;;;;;5073715;28;19981;-42
2024/01/28 04:32:16;;;;;;;;;;;;;;;;;;5073951;28;19971;-41
2024/01/28 04:34:42;;;;;;;;;;;;;;;;;;5073956;28;19970;-41
2024/01/28 04:37:07;;;;;;;;;;;;;;;;;;5073910;28;19983;-44
2024/01/28 04:39:34;;;;;;;;;;;;;;;;;;5073912;28;19970;-44
2024/01/28 04:42:00;;;;;;;;;;;;;;;;;;5073775;28;19978;-41
2024/01/28 04:44:26;;;;;;;;;;;;;;;;;;5073404;28;19928;-41
2024/01/28 04:46:52;;;;;;;;;;;;;;;;;;5068154;28;20380;-42
2024/01/28 04:49:17;;;;;;;;;;;;;;;;;;5073544;28;19928;-40
2024/01/28 04:51:43;;;;;;;;;;;;;;;;;;5073536;28;19925;-43
2024/01/28 04:54:08;;;;;;;;;;;;;;;;;;5073294;28;20420;-41
2024/01/28 04:56:34;;;;;;;;;;;;;;;;;;5073569;28;19929;-41
2024/01/28 04:59:02;;;;;;;;;;;;;;;;;;5072481;28;19924;-41
2024/01/28 05:01:27;;;;;;;;;;;;;;;;;;5073249;28;19931;-41
2024/01/28 05:03:53;;;;;;;;;;;;;;;;;;5073339;28;19999;-42
2024/01/28 05:06:18;;;;;;;;;;;;;;;;;;5073457;28;19990;-41
2024/01/28 05:08:44;;;;;;;;;;;;;;;;;;5073465;28;20003;-44
2024/01/28 05:11:09;;;;;;;;;;;;;;;;;;5073349;28;20368;-43
2024/01/28 05:13:35;;;;;;;;;;;;;;;;;;5073114;28;20394;-43
2024/01/28 05:16:00;;;;;;;;;;;;;;;;;;5073070;28;19977;-41
2024/01/28 05:18:26;;;;;;;;;;;;;;;;;;5072875;28;20011;-41
2024/01/28 05:20:51;;;;;;;;;;;;;;;;;;5072834;28;20358;-41
2024/01/28 05:23:17;;;;;;;;;;;;;;;;;;5073094;28;19924;-42
2024/01/28 05:25:42;;;;;;;;;;;;;;;;;;5072515;28;19963;-44
2024/01/28 05:28:08;;;;;;;;;;;;;;;;;;5073007;28;19931;-43
2024/01/28 05:30:34;;;;;;;;;;;;;;;;;;5072703;28;19933;-42
2024/01/28 05:32:59;;;;;;;;;;;;;;;;;;5073024;28;19928;-40
2024/01/28 05:35:25;;;;;;;;;;;;;;;;;;5072873;28;20023;-41
2024/01/28 05:37:51;;;;;;;;;;;;;;;;;;5072977;28;19925;-41
2024/01/28 05:40:17;;;;;;;;;;;;;;;;;;5072995;28;20422;-41
2024/01/28 05:42:43;;;;;;;;;;;;;;;;;;5072817;28;19932;-40
2024/01/28 05:45:09;;;;;;;;;;;;;;;;;;5072684;28;20382;-41
2024/01/28 05:47:34;;;;;;;;;;;;;;;;;;5067411;28;19975;-42
2024/01/28 05:50:00;;;;;;;;;;;;;;;;;;5072617;28;19924;-42
2024/01/28 05:52:25;;;;;;;;;;;;;;;;;;5072664;28;19929;-44
2024/01/28 05:54:51;;;;;;;;;;;;;;;;;;5072376;28;19959;-42
2024/01/28 05:57:17;;;;;;;;;;;;;;;;;;5072589;28;19928;-41
2024/01/28 05:59:42;;;;;;;;;;;;;;;;;;5072150;28;20011;-41
2024/01/28 06:02:08;;;;;;;;;;;;;;;;;;5072392;28;19977;-41
2024/01/28 06:04:33;;;;;;;;;;;;;;;;;;5072445;28;20447;-43
2024/01/28 06:06:59;;;;;;;;;;;;;;;;;;5072459;28;20249;-43
2024/01/28 06:09:25;;;;;;;;;;;;;;;;;;5072038;28;19925;-43
2024/01/28 06:11:50;;;;;;;;;;;;;;;;;;5072550;28;20019;-41
2024/01/28 06:14:15;;;;;;;;;;;;;;;;;;5072405;28;19960;-41
2024/01/28 06:16:41;;;;;;;;;;;;;;;;;;5072227;28;19948;-41
2024/01/28 06:19:06;;;;;;;;;;;;;;;;;;5072284;28;20050;-43
2024/01/28 06:21:32;;;;;;;;;;;;;;;;;;5072262;28;20004;-40
2024/01/28 06:23:57;;;;;;;;;;;;;;;;;;5071715;28;19982;-44
2024/01/28 06:26:23;;;;;;;;;;;;;;;;;;5071873;28;19924;-41
2024/01/28 06:28:48;;;;;;;;;;;;;;;;;;5072133;28;20399;-41
2024/01/28 06:31:14;;;;;;;;;;;;;;;;;;5071925;28;20331;-42
2024/01/28 06:33:40;;;;;;;;;;;;;;;;;;5072186;28;19925;-41
2024/01/28 06:36:05;;;;;;;;;;;;;;;;;;5072109;28;19925;-42
2024/01/28 06:38:31;;;;;;;;;;;;;;;;;;5072098;28;20284;-41
2024/01/28 06:40:56;;;;;;;;;;;;;;;;;;5072204;28;19967;-41
2024/01/28 06:43:22;;;;;;;;;;;;;;;;;;5072186;28;19967;-40
2024/01/28 06:45:48;;;;;;;;;;;;;;;;;;5072065;28;19924;-42
2024/01/28 06:48:13;;;;;;;;;;;;;;;;;;5071529;28;20411;-41
2024/01/28 06:50:39;;;;;;;;;;;;;;;;;;5052036;28;19924;-43
2024/01/28 06:53:05;;;;;;;;;;;;;;;;;;5051810;28;20027;-41
2024/01/28 06:55:30;;;;;;;;;;;;;;;;;;5051396;28;19932;-42
2024/01/28 06:57:55;;;;;;;;;;;;;;;;;;5051834;28;20321;-42
2024/01/28 07:00:21;;;;;;;;;;;;;;;;;;5051364;28;19956;-44
2024/01/28 07:02:47;;;;;;;;;;;;;;;;;;5051841;28;20069;-42
2024/01/28 07:05:12;;;;;;;;;;;;;;;;;;5051631;28;19924;-41
2024/01/28 07:07:38;;;;;;;;;;;;;;;;;;5051722;28;20280;-41
2024/01/28 07:10:05;;;;;;;;;;;;;;;;;;5050630;28;19925;-42
2024/01/28 07:12:30;;;;;;;;;;;;;;;;;;5051517;28;20368;-43
2024/01/28 07:14:55;;;;;;;;;;;;;;;;;;5051572;28;19983;-40
2024/01/28 07:17:21;;;;;;;;;;;;;;;;;;5051450;28;19932;-40
2024/01/28 07:19:46;;;;;;;;;;;;;;;;;;5051476;28;20318;-41
2024/01/28 07:22:12;;;;;;;;;;;;;;;;;;5052615;28;19925;-44
2024/01/28 07:24:38;;;;;;;;;;;;;;;;;;5054539;28;20357;-41
2024/01/28 07:27:04;;;;;;;;;;;;;;;;;;5054477;28;19929;-41
2024/01/28 07:29:29;;;;;;;;;;;;;;;;;;5054487;28;20360;-43
2024/01/28 07:31:55;;;;;;;;;;;;;;;;;;5054725;28;20380;-41
2024/01/28 07:34:23;;;;;;;;;;;;;;;;;;5054492;28;19968;-41
2024/01/28 07:36:49;;;;;;;;;;;;;;;;;;5054747;28;20323;-41
2024/01/28 07:39:15;;;;;;;;;;;;;;;;;;5054612;28;19932;-40
2024/01/28 07:41:40;;;;;;;;;;;;;;;;;;5054745;28;19924;-43
2024/01/28 07:44:05;;;;;;;;;;;;;;;;;;5054805;28;20023;-43
2024/01/28 07:46:31;;;;;;;;;;;;;;;;;;5054616;28;20011;-40
2024/01/28 07:48:56;;;;;;;;;;;;;;;;;;5054449;28;20020;-40
2024/01/28 07:51:22;;;;;;;;;;;;;;;;;;5064757;28;19931;-43
2024/01/28 07:53:48;;;;;;;;;;;;;;;;;;5074340;28;19924;-42
2024/01/28 07:56:13;;;;;;;;;;;;;;;;;;5074365;28;20341;-41
2024/01/28 07:58:39;;;;;;;;;;;;;;;;;;5074360;28;19925;-40
2024/01/28 08:01:05;;;;;;;;;;;;;;;;;;5074036;28;20283;-41
2024/01/28 08:03:30;;;;;;;;;;;;;;;;;;5074374;28;20203;-41
2024/01/28 08:05:56;;;;;;;;;;;;;;;;;;5074360;28;19951;-41
2024/01/28 08:08:21;;;;;;;;;;;;;;;;;;5074275;28;20344;-45
2024/01/28 08:10:47;;;;;;;;;;;;;;;;;;5074329;28;20031;-41
2024/01/28 08:13:12;;;;;;;;;;;;;;;;;;5074380;28;19931;-41
2024/01/28 08:15:38;;;;;;;;;;;;;;;;;;5074258;28;19932;-41
2024/01/28 08:18:03;;;;;;;;;;;;;;;;;;5074199;28;19924;-41
2024/01/28 08:20:29;;;;;;;;;;;;;;;;;;5074066;28;20419;-42
2024/01/28 08:22:54;;;;;;;;;;;;;;;;;;5073933;28;19932;-41
2024/01/28 08:25:19;;;;;;;;;;;;;;;;;;5073609;28;19975;-41
2024/01/28 08:27:45;;;;;;;;;;;;;;;;;;5073850;28;19924;-41
2024/01/28 08:30:11;;;;;;;;;;;;;;;;;;5073684;28;19936;-42
2024/01/28 08:32:36;;;;;;;;;;;;;;;;;;5073571;28;19929;-41
2024/01/28 08:35:03;;;;;;;;;;;;;;;;;;5072775;28;19977;-41
2024/01/28 08:37:28;;;;;;;;;;;;;;;;;;5073858;28;19925;-41
2024/01/28 08:39:53;;;;;;;;;;;;;;;;;;5073834;28;19947;-41
2024/01/28 08:42:19;;;;;;;;;;;;;;;;;;5073951;28;20097;-43
2024/01/28 08:44:44;;;;;;;;;;;;;;;;;;5073822;28;20023;-40
2024/01/28 08:47:10;;;;;;;;;;;;;;;;;;5073785;28;19925;-42
2024/01/28 08:49:35;;;;;;;;;;;;;;;;;;5073712;28;19925;-41
2024/01/28 08:52:01;;;;;;;;;;;;;;;;;;5071377;28;19970;-41
2024/01/28 08:54:26;;;;;;;;;;;;;;;;;;5053362;28;20272;-40
2024/01/28 08:56:52;;;;;;;;;;;;;;;;;;5053551;28;19924;-41
2024/01/28 08:59:17;;;;;;;;;;;;;;;;;;5052964;28;19929;-41
2024/01/28 09:01:44;;;;;;;;;;;;;;;;;;5053291;28;19924;-43
2024/01/28 09:04:10;;;;;;;;;;;;;;;;;;5053434;28;19924;-41
2024/01/28 09:06:35;;;;;;;;;;;;;;;;;;5053323;28;19925;-41
2024/01/28 09:09:04;;;;;;;;;;;;;;;;;;5053437;28;20272;-41
2024/01/28 09:11:31;;;;;;;;;;;;;;;;;;5053366;28;19925;-40
2024/01/28 09:13:57;;;;;;;;;;;;;;;;;;5053258;28;19947;-41
2024/01/28 09:16:23;;;;;;;;;;;;;;;;;;5053336;28;19928;-40
2024/01/28 09:18:48;;;;;;;;;;;;;;;;;;5053269;28;19987;-41
2024/01/28 09:21:14;;;;;;;;;;;;;;;;;;5052835;28;19969;-43
2024/01/28 09:23:39;;;;;;;;;;;;;;;;;;5053011;28;20364;-42
2024/01/28 09:26:05;;;;;;;;;;;;;;;;;;5052664;28;20024;-41
2024/01/28 09:28:31;;;;;;;;;;;;;;;;;;5052955;28;19925;-41
2024/01/28 09:30:56;;;;;;;;;;;;;;;;;;5052488;28;20031;-41
2024/01/28 09:33:22;;;;;;;;;;;;;;;;;;5052964;28;20388;-43
2024/01/28 09:35:52;;;;;;;;;;;;;;;;;;5052569;28;19935;-40
2024/01/28 09:38:17;;;;;;;;;;;;;;;;;;5052915;28;19928;-42
2024/01/28 09:40:42;;;;;;;;;;;;;;;;;;5052758;28;20317;-42
2024/01/28 09:43:08;;;;;;;;;;;;;;;;;;5052945;28;19928;-41
2024/01/28 09:45:33;;;;;;;;;;;;;;;;;;5052437;28;19998;-42
2024/01/28 09:47:59;;;;;;;;;;;;;;;;;;5052837;28;20437;-41
2024/01/28 09:50:25;;;;;;;;;;;;;;;;;;5052628;28;19924;-41
2024/01/28 09:52:50;;;;;;;;;;;;;;;;;;5052571;28;20257;-42
2024/01/28 09:55:16;;;;;;;;;;;;;;;;;;5052526;28;19967;-40
2024/01/28 09:57:41;;;;;;;;;;;;;;;;;;5054205;28;20014;-41
2024/01/28 10:00:07;;;;;;;;;;;;;;;;;;5051928;28;20007;-40
2024/01/28 10:02:32;;;;;;;;;;;;;;;;;;5056056;28;19978;-41
2024/01/28 10:04:58;;;;;;;;;;;;;;;;;;5070479;28;20432;-43
2024/01/28 10:07:23;;;;;;;;;;;;;;;;;;5072416;28;20276;-40
2024/01/28 10:09:49;;;;;;;;;;;;;;;;;;5072469;28;20023;-43
2024/01/28 10:12:14;;;;;;;;;;;;;;;;;;5072485;28;19924;-41
2024/01/28 10:14:40;;;;;;;;;;;;;;;;;;5068360;28;20070;-40
2024/01/28 10:17:05;;;;;;;;;;;;;;;;;;5052405;28;19999;-42
2024/01/28 10:19:31;;;;;;;;;;;;;;;;;;5052321;28;19924;-43
2024/01/28 10:21:57;;;;;;;;;;;;;;;;;;5052184;28;19925;-41
2024/01/28 10:24:22;;;;;;;;;;;;;;;;;;5051805;28;19924;-42
2024/01/28 10:26:48;;;;;;;;;;;;;;;;;;5052087;28;19932;-42
2024/01/28 10:29:14;;;;;;;;;;;;;;;;;;5052176;28;19979;-41
2024/01/28 10:31:40;;;;;;;;;;;;;;;;;;5051963;28;20008;-40
2024/01/28 10:34:05;;;;;;;;;;;;;;;;;;5051937;28;19924;-41
2024/01/28 10:36:31;;;;;;;;;;;;;;;;;;5052092;28;19964;-42
2024/01/28 10:38:56;;;;;;;;;;;;;;;;;;5052091;28;19929;-41
2024/01/28 10:41:22;;;;;;;;;;;;;;;;;;5052191;28;19975;-42
2024/01/28 10:43:47;;;;;;;;;;;;;;;;;;5052137;28;20071;-40
2024/01/28 10:46:16;;;;;;;;;;;;;;;;;;5052144;28;19960;-43
2024/01/28 10:48:41;;;;;;;;;;;;;;;;;;5052108;28;19932;-40
2024/01/28 10:51:07;;;;;;;;;;;;;;;;;;5051963;28;19933;-44
2024/01/28 10:53:33;;;;;;;;;;;;;;;;;;5051860;28;19983;-41
2024/01/28 10:55:59;;;;;;;;;;;;;;;;;;5051514;28;19925;-40
2024/01/28 10:58:24;;;;;;;;;;;;;;;;;;5054979;28;19986;-41
2024/01/28 11:00:50;;;;;;;;;;;;;;;;;;5055009;28;20048;-40
2024/01/28 11:03:15;;;;;;;;;;;;;;;;;;5055113;28;19987;-41
2024/01/28 11:05:41;;;;;;;;;;;;;;;;;;5055171;28;19976;-44
2024/01/28 11:08:06;;;;;;;;;;;;;;;;;;5055211;28;20020;-43
2024/01/28 11:10:32;;;;;;;;;;;;;;;;;;5055179;28;20000;-42
2024/01/28 11:12:57;;;;;;;;;;;;;;;;;;5055261;28;19928;-44
2024/01/28 11:15:23;;;;;;;;;;;;;;;;;;5055080;28;19933;-44
2024/01/28 11:17:50;;;;;;;;;;;;;;;;;;5057075;28;20368;-40
2024/01/28 11:20:16;;;;;;;;;;;;;;;;;;5055151;28;19964;-42
2024/01/28 11:22:41;;;;;;;;;;;;;;;;;;5054907;28;19979;-41
2024/01/28 11:25:07;;;;;;;;;;;;;;;;;;5054453;28;20304;-42
2024/01/28 11:27:33;;;;;;;;;;;;;;;;;;5054444;28;20273;-42
2024/01/28 11:29:58;;;;;;;;;;;;;;;;;;5054569;28;20381;-43
2024/01/28 11:32:24;;;;;;;;;;;;;;;;;;5054803;28;20022;-41
2024/01/28 11:34:49;;;;;;;;;;;;;;;;;;5054865;28;19925;-41
2024/01/28 11:37:15;;;;;;;;;;;;;;;;;;5054776;28;20015;-44
2024/01/28 11:39:41;;;;;;;;;;;;;;;;;;5054757;28;19996;-42
2024/01/28 11:42:07;;;;;;;;;;;;;;;;;;5054768;28;19932;-41
2024/01/28 11:44:33;;;;;;;;;;;;;;;;;;5054813;28;19925;-42
2024/01/28 11:47:07;;;;;;;;;;;;;;;;;;5054665;28;19925;-41
2024/01/28 11:49:32;;;;;;;;;;;;;;;;;;5054654;28;19932;-43
2024/01/28 11:51:58;;;;;;;;;;;;;;;;;;5054075;28;20019;-45
2024/01/28 11:54:23;;;;;;;;;;;;;;;;;;5054122;28;20361;-41
2024/01/28 11:56:48;;;;;;;;;;;;;;;;;;5054418;28;20006;-41
2024/01/28 11:59:14;;;;;;;;;;;;;;;;;;5054296;28;19925;-43
2024/01/28 12:01:39;;;;;;;;;;;;;;;;;;5053912;28;19932;-44
2024/01/28 12:04:05;;;;;;;;;;;;;;;;;;5054306;28;20384;-42
2024/01/28 12:06:30;;;;;;;;;;;;;;;;;;5054283;28;19975;-41
2024/01/28 12:08:56;;;;;;;;;;;;;;;;;;5054128;28;19964;-44
2024/01/28 12:11:21;;;;;;;;;;;;;;;;;;5054398;28;20338;-42
2024/01/28 12:13:47;;;;;;;;;;;;;;;;;;5054322;28;19936;-41
2024/01/28 12:16:12;;;;;;;;;;;;;;;;;;5054192;28;19968;-41
2024/01/28 12:18:39;;;;;;;;;;;;;;;;;;5057669;28;20351;-40
2024/01/28 12:21:04;;;;;;;;;;;;;;;;;;5074291;28;20356;-41
2024/01/28 12:23:31;;;;;;;;;;;;;;;;;;5073686;28;20019;-43
2024/01/28 12:25:56;;;;;;;;;;;;;;;;;;5073587;28;19928;-42
2024/01/28 12:28:22;;;;;;;;;;;;;;;;;;5073961;28;20094;-44
2024/01/28 12:30:47;;;;;;;;;;;;;;;;;;5073660;28;19974;-42
2024/01/28 12:33:13;;;;;;;;;;;;;;;;;;5074025;28;19925;-44
2024/01/28 12:35:38;;;;;;;;;;;;;;;;;;5073863;28;19925;-42
2024/01/28 12:38:04;;;;;;;;;;;;;;;;;;5073744;28;20287;-40
2024/01/28 12:40:29;;;;;;;;;;;;;;;;;;5073680;28;20391;-41
2024/01/28 12:42:55;;;;;;;;;;;;;;;;;;5073788;28;20384;-44
2024/01/28 12:45:21;;;;;;;;;;;;;;;;;;5073755;28;20371;-44
2024/01/28 12:47:46;;;;;;;;;;;;;;;;;;5073746;28;19960;-42
2024/01/28 12:50:12;;;;;;;;;;;;;;;;;;5073719;28;20426;-41
2024/01/28 12:52:37;;;;;;;;;;;;;;;;;;5073180;28;19970;-39
2024/01/28 12:55:03;;;;;;;;;;;;;;;;;;5073028;28;19924;-40
2024/01/28 12:57:28;;;;;;;;;;;;;;;;;;5073481;28;20332;-45
2024/01/28 12:59:54;;;;;;;;;;;;;;;;;;5073065;28;19924;-41
2024/01/28 13:02:19;;;;;;;;;;;;;;;;;;5073436;28;20018;-43
2024/01/28 13:04:44;;;;;;;;;;;;;;;;;;5073423;28;19983;-40
2024/01/28 13:07:10;;;;;;;;;;;;;;;;;;5073395;28;19988;-42
2024/01/28 13:09:35;;;;;;;;;;;;;;;;;;5073422;28;19924;-42
2024/01/28 13:12:01;;;;;;;;;;;;;;;;;;5073435;28;19932;-43
2024/01/28 13:14:27;;;;;;;;;;;;;;;;;;5073289;28;20330;-42
2024/01/28 13:16:52;;;;;;;;;;;;;;;;;;5073413;28;20299;-43
2024/01/28 13:19:18;;;;;;;;;;;;;;;;;;5071714;28;19929;-43
2024/01/28 13:21:43;;;;;;;;;;;;;;;;;;5057791;28;19932;-42
2024/01/28 13:24:09;;;;;;;;;;;;;;;;;;5052824;28;20356;-43
2024/01/28 13:26:34;;;;;;;;;;;;;;;;;;5052379;28;20304;-41
2024/01/28 13:29:00;;;;;;;;;;;;;;;;;;5052496;28;19924;-42
2024/01/28 13:31:25;;;;;;;;;;;;;;;;;;5052772;28;19967;-44
2024/01/28 13:33:50;;;;;;;;;;;;;;;;;;5052756;28;20020;-40
2024/01/28 13:36:16;;;;;;;;;;;;;;;;;;5052770;28;20415;-43
2024/01/28 13:38:41;;;;;;;;;;;;;;;;;;5052917;28;19972;-42
2024/01/28 13:41:07;;;;;;;;;;;;;;;;;;5052837;28;20324;-43
2024/01/28 13:43:34;;;;;;;;;;;;;;;;;;5053028;28;19970;-42
2024/01/28 13:46:00;;;;;;;;;;;;;;;;;;5052893;28;19931;-43
2024/01/28 13:48:25;;;;;;;;;;;;;;;;;;5052801;28;19929;-41
2024/01/28 13:50:51;;;;;;;;;;;;;;;;;;5052844;28;19963;-44
2024/01/28 13:53:16;;;;;;;;;;;;;;;;;;5052353;28;19955;-41
2024/01/28 13:55:42;;;;;;;;;;;;;;;;;;5052377;28;20329;-42
2024/01/28 13:58:07;;;;;;;;;;;;;;;;;;5052540;28;19965;-42
2024/01/28 14:00:33;;;;;;;;;;;;;;;;;;5051980;28;20011;-41
2024/01/28 14:02:58;;;;;;;;;;;;;;;;;;5052555;28;19960;-40
2024/01/28 14:05:23;;;;;;;;;;;;;;;;;;5052519;28;19925;-43
2024/01/28 14:07:49;;;;;;;;;;;;;;;;;;5052461;28;20327;-41
2024/01/28 14:10:14;;;;;;;;;;;;;;;;;;5052515;28;20348;-40
2024/01/28 14:12:40;;;;;;;;;;;;;;;;;;5052473;28;19924;-42
2024/01/28 14:15:06;;;;;;;;;;;;;;;;;;5052354;28;20277;-44
2024/01/28 14:17:32;;;;;;;;;;;;;;;;;;5052053;28;20028;-42
2024/01/28 14:19:59;;;;;;;;;;;;;;;;;;5052495;28;19929;-41
2024/01/28 14:22:27;;;;;;;;;;;;;;;;;;5058919;28;19971;-42
2024/01/28 14:24:52;;;;;;;;;;;;;;;;;;5071927;28;19932;-44
2024/01/28 14:27:18;;;;;;;;;;;;;;;;;;5072012;28;20023;-41
2024/01/28 14:29:43;;;;;;;;;;;;;;;;;;5071840;28;20390;-43
2024/01/28 14:32:09;;;;;;;;;;;;;;;;;;5073536;28;19932;-43
2024/01/28 14:34:34;;;;;;;;;;;;;;;;;;5075736;28;20397;-41
2024/01/28 14:37:00;;;;;;;;;;;;;;;;;;5075802;28;20007;-42
2024/01/28 14:39:28;;;;;;;;;;;;;;;;;;5075577;28;19971;-42
2024/01/28 14:41:53;;;;;;;;;;;;;;;;;;5075637;28;20321;-40
2024/01/28 14:44:19;;;;;;;;;;;;;;;;;;5075625;28;20352;-41
2024/01/28 14:46:44;;;;;;;;;;;;;;;;;;5075550;28;19986;-41
2024/01/28 14:49:10;;;;;;;;;;;;;;;;;;5075558;28;20330;-44
2024/01/28 14:51:39;;;;;;;;;;;;;;;;;;5075160;28;20334;-43
2024/01/28 14:54:04;;;;;;;;;;;;;;;;;;5075023;28;19929;-40
2024/01/28 14:56:30;;;;;;;;;;;;;;;;;;5075671;28;19931;-44
2024/01/28 14:58:55;;;;;;;;;;;;;;;;;;5075234;28;19995;-42
2024/01/28 15:01:20;;;;;;;;;;;;;;;;;;5074869;28;19924;-40
2024/01/28 15:03:46;;;;;;;;;;;;;;;;;;5074924;28;19956;-41
2024/01/28 15:06:12;;;;;;;;;;;;;;;;;;5075222;28;19924;-44
2024/01/28 15:08:38;;;;;;;;;;;;;;;;;;5074729;28;20116;-40
2024/01/28 15:11:04;;;;;;;;;;;;;;;;;;5075085;28;19936;-40
2024/01/28 15:13:29;;;;;;;;;;;;;;;;;;5075021;28;19925;-41
2024/01/28 15:15:55;;;;;;;;;;;;;;;;;;5074991;28;20023;-43
2024/01/28 15:18:21;;;;;;;;;;;;;;;;;;5074792;28;19924;-41
2024/01/28 15:20:46;;;;;;;;;;;;;;;;;;5075039;28;20395;-41
2024/01/28 15:23:12;;;;;;;;;;;;;;;;;;5073147;28;19924;-43
2024/01/28 15:25:38;;;;;;;;;;;;;;;;;;5056245;28;19976;-43
2024/01/28 15:28:03;;;;;;;;;;;;;;;;;;5054742;28;19931;-41
2024/01/28 15:30:29;;;;;;;;;;;;;;;;;;5054523;28;19957;-41
2024/01/28 15:32:54;;;;;;;;;;;;;;;;;;5054940;28;19925;-40
2024/01/28 15:35:20;;;;;;;;;;;;;;;;;;5054737;28;19925;-41
2024/01/28 15:37:45;;;;;;;;;;;;;;;;;;5054786;28;20297;-43
2024/01/28 15:40:11;;;;;;;;;;;;;;;;;;5054764;28;19928;-43
2024/01/28 15:42:37;;;;;;;;;;;;;;;;;;5053912;28;19982;-43
2024/01/28 15:45:03;;;;;;;;;;;;;;;;;;5054616;28;20011;-43
2024/01/28 15:47:28;;;;;;;;;;;;;;;;;;5054614;28;19933;-40
2024/01/28 15:49:54;;;;;;;;;;;;;;;;;;5054704;28;19975;-40
2024/01/28 15:52:19;;;;;;;;;;;;;;;;;;5054663;28;19974;-41
2024/01/28 15:54:45;;;;;;;;;;;;;;;;;;5054611;28;19931;-41
2024/01/28 15:57:10;;;;;;;;;;;;;;;;;;5054571;28;19948;-40
2024/01/28 15:59:37;;;;;;;;;;;;;;;;;;5053663;28;19975;-40
2024/01/28 16:02:03;;;;;;;;;;;;;;;;;;5054120;28;20261;-43
2024/01/28 16:04:28;;;;;;;;;;;;;;;;;;5054346;28;20419;-41
2024/01/28 16:06:56;;;;;;;;;;;;;;;;;;5054216;28;20019;-41
2024/01/28 16:09:21;;;;;;;;;;;;;;;;;;5054167;28;19925;-41
2024/01/28 16:11:47;;;;;;;;;;;;;;;;;;5054313;28;20384;-40
2024/01/28 16:14:12;;;;;;;;;;;;;;;;;;5053752;28;19931;-40
2024/01/28 16:16:38;;;;;;;;;;;;;;;;;;5053824;28;20019;-42
2024/01/28 16:19:03;;;;;;;;;;;;;;;;;;5054276;28;19925;-41
2024/01/28 16:21:29;;;;;;;;;;;;;;;;;;5054279;28;19924;-42
2024/01/28 16:23:54;;;;;;;;;;;;;;;;;;5056691;28;20371;-42
2024/01/28 16:26:20;;;;;;;;;;;;;;;;;;5064202;28;20011;-45
2024/01/28 16:28:47;;;;;;;;;;;;;;;;;;5053956;28;19961;-41
2024/01/28 16:31:12;;;;;;;;;;;;;;;;;;5053568;28;19933;-40
2024/01/28 16:33:37;;;;;;;;;;;;;;;;;;5053882;28;20016;-44